Palestine Municipal Airport

About
Name: Palestine Municipal Airport
Identifier:  PSN/KPSN
Local Time:  25. Aug 03:52 CDT
Location
Flights per Day
0 flights
Distance: 70km (43mi)
Punctuality
0% (0 flights per day delayed)
Delay Average: 2858 minutes
Current Weather
 25 C (Humidity: 88%)
  3kt (5km/h / 3mph) from 90°
  16km (10 mi.)
 
 METAR KPSN 250835Z AUTO 09003KT 10SM CLR 25/23 A2988 RMK AO2 T02500240

Current Flights

Departures
Number Departure To Airline
Arrivals
Number Arrival From Airline

Current Delays

Departures
N/A
Arrivals
N/A

Destinations

Top Destinations
Airport Flights
per week
Seats
per week
  Dallas (DFW) 1 - 0 0
  Tyler (TYR) 0 - 0 0
  Houston (DWH) 0 - 0 0
  Shreveport (SHV) 0 - 0 0
  Destin (DSI) 0 - 0 0
  Carlsbad (CNM) 0 - 0 0
  Pecos (PEQ) 0 - 0 0
  San Marcos (HYI) 0 - 0 0
  Batesville (BVX) 0 - 0 0
  Amarillo (AMA) 0 - 0 0
  Austin (AUS) 0 - 0 0
  Nashville (BNA) 0 - 0 0
  Melbourne (MLB) 0 - 0 0

Airlines & Planes

Top Airlines
Airline Flights
per Day
Seats
per Day
  Nolinor Aviation 0 -
Jet Charter Inc ( Franklin Lakes Nj ) 0 -
  National Airlines 0 -
  Flybe Nordic 0 -
Top Plane Types
Model Flights Seats
Cessna C208 0.4/day - 0
Beech E90 King Air 0.1/day - 0
Cirrus SR22 0.0/day - 0